Weather History for Cheboygan, MI

Change the Weather History Date:

Tuesday, August 26, 2014

  Actual Average (KPLN) Record (KPLN)
Temperature  
Mean Temperature 63 °F -  
Max Temperature 71 °F 75 °F 92 °F (1948)
Min Temperature 55 °F 54 °F 34 °F (1963)
Degree Days  
Heating Degree Days 2    
Growing Degree Days 13 (Base 50)    
Moisture  
Dew Point 60 °F    
Average Humidity 77    
Maximum Humidity 100    
Minimum Humidity 57    
Precipitation  
Precipitation 0.00 in - - ()
Sea Level Pressure  
Sea Level Pressure 30.03 in    
Wind  
Wind Speed 5 mph (WNW)    
Max Wind Speed 17 mph    
Max Gust Speed 22 mph    
Visibility 10 miles    
Events      
Averages and records for this station are not official NWS values.
T = Trace of Precipitation, MM = Missing Value Source: NWS Daily Summary

Daily Weather History Graph

Daily Weather History Graph

Search for Another Location

Airport:

Trip Planner

Search our weather history database for the weather conditions in past years. The results will help you decide how hot, cold, wet, or windy it might be!

Date:

Astronomy

Aug. 26, 2014 Rise Set
Actual Time 6:51 AM EDT 8:26 PM EDT
Civil Twilight 6:20 AM EDT 8:58 PM EDT
Nautical Twilight 5:42 AM EDT 9:35 PM EDT
Astronomical Twilight 5:01 AM EDT 10:16 PM EDT
Moon 7:56 AM EDT 8:41 PM EDT
Length of Visible Light 14h 37m
Length of Day
13h 35m
New Moon, 1% of the Moon is Illuminated
Aug 26
New Moon
Sep 2
First Quarter
Sep 8
Full
Sep 15
Last Quarter
Sep 24
New

Hourly Weather History & Observations

Time (EDT) Temp. Dew Point Humidity Pressure Visibility Wind Dir Wind Speed Gust Speed Precip Events Conditions
12:17 AM 69.8 °F 69.6 °F 99% 29.94 in 4.0 mi Calm Calm - N/A   Clear
12:37 AM 70.5 °F 70.2 °F 99% 29.93 in 7.0 mi Calm Calm - N/A   Clear
12:58 AM 69.1 °F 68.9 °F 99% 29.93 in 4.0 mi Calm Calm - N/A   Clear
1:17 AM 68.9 °F 68.9 °F 100% 29.94 in 2.5 mi Calm Calm - N/A   Clear
1:37 AM 69.3 °F 69.3 °F 100% 29.94 in 5.0 mi Calm Calm - N/A   Clear
1:58 AM 70.2 °F 70.2 °F 100% 29.94 in 7.0 mi SW 3.5 mph - N/A   Clear
2:17 AM 71.1 °F 70.2 °F 97% 29.94 in 10.0 mi WSW 4.6 mph - N/A   Clear
2:37 AM 71.2 °F 69.8 °F 95% 29.94 in 10.0 mi West 4.6 mph - N/A   Clear
2:57 AM 71.2 °F 69.8 °F 95% 29.94 in 10.0 mi SW 8.1 mph - N/A   Clear
3:17 AM 70.9 °F 69.3 °F 95% 29.95 in 10.0 mi SW 6.9 mph - N/A   Clear
3:37 AM 70.7 °F 69.1 °F 95% 29.95 in 10.0 mi WSW 5.8 mph - N/A   Clear
3:57 AM 70.0 °F 68.9 °F 96% 29.96 in 10.0 mi WNW 6.9 mph - N/A   Mostly Cloudy
4:17 AM 70.7 °F 69.3 °F 95% 29.97 in 10.0 mi Calm Calm - N/A   Overcast
4:37 AM 69.8 °F 68.9 °F 97% 29.97 in 10.0 mi NNW 5.8 mph - N/A   Overcast
4:57 AM 69.8 °F 68.5 °F 96% 29.98 in 7.0 mi West 10.4 mph - N/A   Overcast
5:17 AM 69.1 °F 68.0 °F 96% 29.97 in 7.0 mi West 5.8 mph - N/A   Overcast
5:37 AM 68.9 °F 67.5 °F 95% 29.97 in 10.0 mi WSW 3.5 mph - N/A   Overcast
5:57 AM 68.7 °F 66.7 °F 93% 29.98 in 10.0 mi West 4.6 mph - N/A   Overcast
6:18 AM 68.5 °F 66.6 °F 93% 29.98 in 10.0 mi West 4.6 mph - N/A   Overcast
6:37 AM 68.4 °F 66.2 °F 93% 29.99 in 10.0 mi West 4.6 mph - N/A   Overcast
6:57 AM 68.0 °F 65.1 °F 90% 29.99 in 10.0 mi West 3.5 mph - N/A   Mostly Cloudy
7:18 AM 66.7 °F 64.4 °F 92% 30.01 in 10.0 mi West 4.6 mph - N/A   Mostly Cloudy
7:37 AM 66.2 °F 63.7 °F 92% 30.02 in 10.0 mi WNW 3.5 mph - N/A   Mostly Cloudy
7:57 AM 67.1 °F 63.5 °F 88% 30.02 in 10.0 mi West 4.6 mph - N/A   Scattered Clouds
8:17 AM 68.0 °F 62.4 °F 82% 30.02 in 10.0 mi West 4.6 mph - N/A   Scattered Clouds
8:37 AM 69.4 °F 61.3 °F 75% 30.02 in 10.0 mi WNW 4.6 mph - N/A   Mostly Cloudy
8:57 AM 69.4 °F 60.1 °F 72% 30.03 in 10.0 mi WNW 5.8 mph - N/A   Scattered Clouds
9:17 AM 69.6 °F 58.6 °F 68% 30.03 in 10.0 mi WNW 9.2 mph - N/A   Clear
9:37 AM 70.9 °F 56.8 °F 61% 30.03 in 10.0 mi NW 5.8 mph - N/A   Clear
9:57 AM 71.2 °F 56.8 °F 60% 30.04 in 10.0 mi WNW 11.5 mph - N/A   Scattered Clouds
10:17 AM 70.7 °F 55.6 °F 59% 30.04 in 10.0 mi WNW 9.2 mph - N/A   Overcast
10:37 AM 70.5 °F 55.6 °F 59% 30.05 in 10.0 mi WNW 10.4 mph 16.1 mph N/A   Overcast
10:58 AM 71.6 °F 55.8 °F 57% 30.04 in 10.0 mi WNW 11.5 mph - N/A   Overcast
11:17 AM 71.4 °F 55.8 °F 58% 30.04 in 10.0 mi NW 11.5 mph - N/A   Scattered Clouds
11:37 AM 70.7 °F 56.1 °F 60% 30.05 in 10.0 mi WNW 9.2 mph - N/A   Scattered Clouds
11:58 AM 70.7 °F 55.9 °F 59% 30.05 in 10.0 mi NW 15.0 mph 19.6 mph N/A   Scattered Clouds
12:17 PM 69.8 °F 55.8 °F 61% 30.05 in 10.0 mi WNW 15.0 mph 18.4 mph N/A   Mostly Cloudy
12:37 PM 69.4 °F 55.6 °F 61% 30.05 in 10.0 mi WNW 15.0 mph 19.6 mph N/A   Overcast
12:57 PM 70.5 °F 55.8 °F 59% 30.06 in 10.0 mi WNW 17.3 mph - N/A   Overcast
1:17 PM 68.9 °F 55.4 °F 62% 30.06 in 10.0 mi NW 12.7 mph 20.7 mph N/A   Mostly Cloudy
1:38 PM 70.0 °F 55.9 °F 61% 30.05 in 10.0 mi WNW 13.8 mph 17.3 mph N/A   Scattered Clouds
1:57 PM 71.1 °F 56.7 °F 60% 30.06 in 10.0 mi WNW 13.8 mph 18.4 mph N/A   Clear
2:17 PM 71.6 °F 56.5 °F 59% 30.06 in 10.0 mi WNW 15.0 mph 21.9 mph N/A   Clear
2:37 PM 70.5 °F 56.1 °F 60% 30.07 in 10.0 mi WNW 15.0 mph 19.6 mph N/A   Scattered Clouds
2:57 PM 69.6 °F 55.8 °F 61% 30.07 in 10.0 mi WNW 11.5 mph - N/A   Overcast
3:17 PM 70.2 °F 56.3 °F 61% 30.07 in 10.0 mi WNW 12.7 mph 20.7 mph N/A   Mostly Cloudy
3:37 PM 71.6 °F 56.8 °F 60% 30.05 in 10.0 mi NW 13.8 mph 19.6 mph N/A   Scattered Clouds
3:57 PM 70.5 °F 56.7 °F 61% 30.05 in 10.0 mi NW 11.5 mph 18.4 mph N/A   Scattered Clouds
4:17 PM 70.3 °F 56.5 °F 61% 30.04 in 10.0 mi WNW 10.4 mph 16.1 mph N/A   Scattered Clouds
4:37 PM 71.4 °F 57.2 °F 61% 30.04 in 10.0 mi WNW 10.4 mph 17.3 mph N/A   Clear
4:57 PM 70.5 °F 56.7 °F 61% 30.03 in 10.0 mi NW 10.4 mph - N/A   Scattered Clouds
5:17 PM 70.5 °F 55.9 °F 60% 30.04 in 10.0 mi NW 12.7 mph - N/A   Clear
5:37 PM 70.2 °F 55.0 °F 59% 30.05 in 10.0 mi West 10.4 mph - N/A   Clear
5:58 PM 70.3 °F 55.0 °F 58% 30.06 in 10.0 mi West 8.1 mph - N/A   Clear
6:17 PM 71.1 °F 55.4 °F 58% 30.06 in 10.0 mi West 6.9 mph - N/A   Clear
6:37 PM 70.2 °F 54.5 °F 57% 30.06 in 10.0 mi West 10.4 mph - N/A   Clear
6:57 PM 69.4 °F 54.5 °F 59% 30.06 in 10.0 mi NW 6.9 mph - N/A   Clear
7:17 PM 68.5 °F 54.5 °F 61% 30.06 in 10.0 mi WNW 8.1 mph - N/A   Clear
7:38 PM 67.5 °F 55.2 °F 65% 30.06 in 10.0 mi WNW 6.9 mph - N/A   Clear
7:57 PM 64.6 °F 54.7 °F 70% 30.06 in 10.0 mi North 6.9 mph - N/A   Clear
8:17 PM 62.2 °F 54.0 °F 74% 30.07 in 10.0 mi North 3.5 mph - N/A   Clear
8:37 PM 60.3 °F 54.5 °F 81% 30.08 in 10.0 mi North 4.6 mph - N/A   Clear
8:57 PM 59.9 °F 53.8 °F 80% 30.08 in 10.0 mi North 3.5 mph - N/A   Clear
9:17 PM 59.0 °F 53.8 °F 83% 30.09 in 10.0 mi North 3.5 mph - N/A   Clear
9:37 PM 57.9 °F 53.2 °F 84% 30.09 in 10.0 mi Calm Calm - N/A   Clear
9:58 PM 57.2 °F 52.3 °F 84% 30.10 in 10.0 mi Calm Calm - N/A   Clear
10:17 PM 56.7 °F 52.0 °F 84% 30.09 in 10.0 mi North 3.5 mph - N/A   Clear
10:37 PM 55.8 °F 51.6 °F 86% 30.10 in 10.0 mi North 3.5 mph - N/A   Clear
10:58 PM 56.7 °F 52.0 °F 84% 30.10 in 10.0 mi NNW 4.6 mph - N/A   Scattered Clouds
11:17 PM 56.7 °F 52.0 °F 84% 30.10 in 10.0 mi NNW 5.8 mph - N/A   Scattered Clouds
11:37 PM 56.1 °F 51.8 °F 85% 30.10 in 10.0 mi NNW 4.6 mph - N/A   Clear
11:57 PM 55.2 °F 51.4 °F 87% 30.10 in 10.0 mi NNW 3.5 mph - N/A   Clear